Time;durP1;ratioP1;P1;durP2;ratioP2;P2;SDS_P1;SDS_P2;PMS_P1;PMS_P2;Temp;Humidity;BMP_temperature;BMP_pressure;BME280_temperature;BME280_humidity;BME280_pressure;Samples;Min_cycle;Max_cycle;Signal;HPM_P1;HPM_P2
2022/06/06 00:00:20;;;;;;;;;;;;;;;23.29;100.00;98647.09;5027618;28;20306;-38
2022/06/06 00:02:45;;;;;;;;;;;;;;;23.44;100.00;98641.41;5024880;28;20058;-38
2022/06/06 00:05:12;;;;;;;;;;;;;;;23.69;100.00;98645.25;5028071;28;19925;-38
2022/06/06 00:07:37;;;;;;;;;;;;;;;23.59;100.00;98645.28;5035004;28;19954;-38
2022/06/06 00:10:03;;;;;;;;;;;;;;;23.49;100.00;98644.44;5035133;28;20362;-38
2022/06/06 00:12:28;;;;;;;;;;;;;;;23.37;100.00;98635.88;5035047;28;20361;-38
2022/06/06 00:14:53;;;;;;;;;;;;;;;23.10;100.00;98636.56;5034602;28;19927;-38
2022/06/06 00:17:19;;;;;;;;;;;;;;;22.37;100.00;98649.09;5026131;28;20395;-38
2022/06/06 00:19:44;;;;;;;;;;;;;;;22.64;100.00;98653.75;5017993;28;19975;-38
2022/06/06 00:22:10;;;;;;;;;;;;;;;22.26;100.00;98644.78;5024371;28;19925;-38
2022/06/06 00:24:35;;;;;;;;;;;;;;;22.23;100.00;98652.91;5027817;28;19921;-38
2022/06/06 00:27:01;;;;;;;;;;;;;;;22.24;100.00;98644.09;5031061;28;19932;-38
2022/06/06 00:29:27;;;;;;;;;;;;;;;22.60;100.00;98653.19;5024366;28;20553;-38
2022/06/06 00:34:54;;;;;;;;;;;;;;;22.48;100.00;98639.34;5026864;28;19974;-38
2022/06/06 00:37:21;;;;;;;;;;;;;;;23.13;100.00;98634.50;5028160;28;19925;-38
2022/06/06 00:39:46;;;;;;;;;;;;;;;23.24;100.00;98644.06;5025633;28;19920;-38
2022/06/06 00:42:12;;;;;;;;;;;;;;;22.82;100.00;98636.38;5023668;28;20024;-38
2022/06/06 00:44:40;;;;;;;;;;;;;;;23.00;100.00;98641.00;5028280;28;19991;-38
2022/06/06 00:47:21;;;;;;;;;;;;;;;23.39;100.00;98642.66;5024919;28;19963;-38
2022/06/06 00:49:58;;;;;;;;;;;;;;;22.56;100.00;98641.31;5009270;28;20726;-38
2022/06/06 00:52:28;;;;;;;;;;;;;;;23.12;100.00;98637.28;5026556;28;19932;-38
2022/06/06 00:54:54;;;;;;;;;;;;;;;22.58;100.00;98628.03;5025810;28;19982;-38
2022/06/06 00:57:21;;;;;;;;;;;;;;;21.85;100.00;98636.00;5024222;28;20291;-38
2022/06/06 00:59:46;;;;;;;;;;;;;;;21.86;100.00;98648.97;5026148;28;19966;-38
2022/06/06 01:02:12;;;;;;;;;;;;;;;21.59;100.00;98640.81;5025477;28;20016;-38
2022/06/06 01:04:38;;;;;;;;;;;;;;;21.21;100.00;98658.72;5006529;28;20297;-38
2022/06/06 01:07:04;;;;;;;;;;;;;;;20.93;100.00;98659.25;5026593;28;20018;-38
2022/06/06 01:09:29;;;;;;;;;;;;;;;21.19;100.00;98650.16;5008825;28;19916;-38
2022/06/06 01:11:56;;;;;;;;;;;;;;;21.08;100.00;98650.19;5029088;28;20248;-38
2022/06/06 01:14:22;;;;;;;;;;;;;;;19.91;100.00;98661.91;5028585;28;19998;-38
2022/06/06 01:16:50;;;;;;;;;;;;;;;20.60;100.00;98643.50;5005513;28;20011;-38
2022/06/06 01:19:34;;;;;;;;;;;;;;;20.10;100.00;98655.28;5006023;28;20899;-38
2022/06/06 01:22:18;;;;;;;;;;;;;;;20.63;100.00;98648.50;5027739;28;19978;-38
2022/06/06 01:25:03;;;;;;;;;;;;;;;20.54;100.00;98654.41;5025069;28;20466;-38
2022/06/06 01:27:28;;;;;;;;;;;;;;;21.18;100.00;98661.56;5025926;28;19917;-38
2022/06/06 01:29:56;;;;;;;;;;;;;;;19.97;100.00;98656.19;5025121;28;20493;-38
2022/06/06 01:32:22;;;;;;;;;;;;;;;20.93;100.00;98664.50;5005947;28;20414;-38
2022/06/06 01:34:48;;;;;;;;;;;;;;;20.81;100.00;98667.13;5007727;28;19924;-38
2022/06/06 01:37:25;;;;;;;;;;;;;;;20.59;100.00;98672.41;5027999;28;19925;-38
2022/06/06 01:39:51;;;;;;;;;;;;;;;20.92;100.00;98670.69;5022204;28;20393;-38
2022/06/06 01:42:20;;;;;;;;;;;;;;;20.60;100.00;98674.91;5006541;28;19948;-38
2022/06/06 01:44:54;;;;;;;;;;;;;;;21.08;100.00;98679.81;5008110;28;19921;-38
2022/06/06 01:47:29;;;;;;;;;;;;;;;21.01;100.00;98677.81;5023646;28;19926;-38
2022/06/06 01:49:57;;;;;;;;;;;;;;;21.25;100.00;98686.28;5005847;28;20378;-38
2022/06/06 01:52:23;;;;;;;;;;;;;;;21.80;100.00;98680.13;5005650;28;19994;-38
2022/06/06 01:54:51;;;;;;;;;;;;;;;21.55;100.00;98681.31;5022855;28;19924;-38
2022/06/06 01:57:17;;;;;;;;;;;;;;;21.61;100.00;98679.03;5024118;28;19921;-38
2022/06/06 01:59:42;;;;;;;;;;;;;;;21.95;100.00;98678.84;5024640;28;19928;-38
2022/06/06 02:02:08;;;;;;;;;;;;;;;21.52;100.00;98687.66;5025007;28;20422;-38
2022/06/06 02:04:33;;;;;;;;;;;;;;;22.11;100.00;98673.97;5024942;28;19931;-38
2022/06/06 02:06:58;;;;;;;;;;;;;;;21.95;100.00;98676.22;5023625;28;20387;-38
2022/06/06 02:09:24;;;;;;;;;;;;;;;21.21;100.00;98679.66;5024038;28;20295;-38
2022/06/06 02:11:49;;;;;;;;;;;;;;;21.89;100.00;98692.47;5025680;28;19936;-38
2022/06/06 02:14:14;;;;;;;;;;;;;;;21.55;100.00;98686.56;5025007;28;19920;-38
2022/06/06 02:16:40;;;;;;;;;;;;;;;21.23;100.00;98690.84;5022503;28;19972;-38
2022/06/06 02:19:05;;;;;;;;;;;;;;;21.02;100.00;98693.38;5024552;28;19921;-38
2022/06/06 02:21:31;;;;;;;;;;;;;;;22.21;100.00;98688.91;5022869;28;19921;-38
2022/06/06 02:23:56;;;;;;;;;;;;;;;21.65;100.00;98696.16;5023806;28;19924;-38
2022/06/06 02:26:22;;;;;;;;;;;;;;;21.84;100.00;98684.97;5026346;28;19921;-38
2022/06/06 02:28:48;;;;;;;;;;;;;;;22.17;100.00;98677.00;5008911;28;19924;-38
2022/06/06 02:31:13;;;;;;;;;;;;;;;22.87;100.00;98684.06;5022863;28;19925;-38
2022/06/06 02:33:38;;;;;;;;;;;;;;;22.25;100.00;98678.06;5022567;28;19962;-38
2022/06/06 02:36:04;;;;;;;;;;;;;;;22.01;100.00;98693.22;5025630;28;19932;-38
2022/06/06 02:38:29;;;;;;;;;;;;;;;21.74;100.00;98696.38;5022575;28;19925;-37
2022/06/06 02:40:55;;;;;;;;;;;;;;;22.24;100.00;98686.91;5025999;28;19917;-38
2022/06/06 02:43:21;;;;;;;;;;;;;;;22.04;100.00;98683.31;5024347;28;19971;-38
2022/06/06 02:45:50;;;;;;;;;;;;;;;21.67;100.00;98696.06;5025546;28;19921;-38
2022/06/06 02:48:16;;;;;;;;;;;;;;;21.61;100.00;98692.13;5024430;28;19921;-38
2022/06/06 02:50:42;;;;;;;;;;;;;;;22.06;100.00;98698.94;5023952;28;19972;-38
2022/06/06 02:53:07;;;;;;;;;;;;;;;21.89;100.00;98690.66;5022198;28;19925;-39
2022/06/06 02:55:33;;;;;;;;;;;;;;;21.63;100.00;98700.69;5026894;28;19927;-38
2022/06/06 02:57:58;;;;;;;;;;;;;;;21.87;100.00;98704.84;5027485;28;20300;-38
2022/06/06 03:00:26;;;;;;;;;;;;;;;21.75;100.00;98704.09;5024265;28;19920;-39
2022/06/06 03:02:51;;;;;;;;;;;;;;;21.84;100.00;98699.88;5021597;28;19980;-38
2022/06/06 03:05:17;;;;;;;;;;;;;;;21.87;100.00;98710.97;5024899;28;20400;-38
2022/06/06 03:08:01;;;;;;;;;;;;;;;22.20;100.00;98703.00;5023946;28;19990;-39
2022/06/06 03:10:47;;;;;;;;;;;;;;;21.50;100.00;98710.53;5023734;28;20397;-38
2022/06/06 03:13:12;;;;;;;;;;;;;;;21.71;100.00;98719.25;5004057;28;20210;-38
2022/06/06 03:21:45;;;;;;;;;;;;;;;21.76;100.00;98720.66;5007665;28;19924;-38
2022/06/06 03:24:14;;;;;;;;;;;;;;;22.19;100.00;98717.91;5008098;28;19979;-38
2022/06/06 03:26:39;;;;;;;;;;;;;;;22.19;100.00;98714.44;5022873;28;19929;-38
2022/06/06 03:29:23;;;;;;;;;;;;;;;22.53;100.00;98721.16;5029049;28;19920;-38
2022/06/06 03:32:01;;;;;;;;;;;;;;;22.61;100.00;98714.41;5034364;28;19916;-38
2022/06/06 03:34:45;;;;;;;;;;;;;;;22.50;100.00;98705.66;5025682;28;19921;-38
2022/06/06 03:37:29;;;;;;;;;;;;;;;22.75;100.00;98708.78;5020545;28;20445;-38
2022/06/06 03:40:00;;;;;;;;;;;;;;;23.15;100.00;98706.13;5021603;28;19960;-38
2022/06/06 03:42:25;;;;;;;;;;;;;;;23.20;100.00;98708.34;5026956;28;20289;-38
2022/06/06 03:44:56;;;;;;;;;;;;;;;22.89;100.00;98705.75;5026116;28;19917;-38
2022/06/06 03:47:40;;;;;;;;;;;;;;;22.95;100.00;98705.22;5007866;28;19921;-38
2022/06/06 03:50:16;;;;;;;;;;;;;;;23.28;100.00;98710.28;5023238;28;20015;-38
2022/06/06 03:52:48;;;;;;;;;;;;;;;23.42;100.00;98703.78;5005497;28;20020;-38
2022/06/06 03:55:22;;;;;;;;;;;;;;;23.52;100.00;98702.84;5025812;28;19932;-38
2022/06/06 03:57:48;;;;;;;;;;;;;;;23.51;100.00;98710.84;5022937;28;19936;-38
2022/06/06 04:00:14;;;;;;;;;;;;;;;23.36;100.00;98710.44;5022023;28;19925;-38
2022/06/06 04:02:41;;;;;;;;;;;;;;;23.32;100.00;98716.94;5025423;28;19925;-38
2022/06/06 04:05:07;;;;;;;;;;;;;;;23.44;100.00;98721.09;5023539;28;19927;-37
2022/06/06 04:07:33;;;;;;;;;;;;;;;23.62;100.00;98723.03;5026530;28;19920;-37
2022/06/06 04:09:58;;;;;;;;;;;;;;;23.65;100.00;98715.72;5024497;28;19932;-38
2022/06/06 04:12:42;;;;;;;;;;;;;;;23.47;100.00;98712.09;5025335;28;19925;-38
2022/06/06 04:15:08;;;;;;;;;;;;;;;23.64;100.00;98714.03;5025823;28;20394;-37
2022/06/06 04:17:39;;;;;;;;;;;;;;;23.58;100.00;98711.94;5026066;28;19945;-37
2022/06/06 04:20:10;;;;;;;;;;;;;;;22.97;100.00;98719.06;5024294;28;19968;-37
2022/06/06 04:22:43;;;;;;;;;;;;;;;22.85;100.00;98714.88;5024233;28;19920;-37
2022/06/06 04:25:12;;;;;;;;;;;;;;;21.95;100.00;98717.34;5008355;28;20859;-37
2022/06/06 04:27:39;;;;;;;;;;;;;;;22.16;100.00;98717.34;5009882;28;20364;-37
2022/06/06 04:30:12;;;;;;;;;;;;;;;22.63;100.00;98715.94;5012703;28;20433;-37
2022/06/06 04:32:46;;;;;;;;;;;;;;;22.42;100.00;98718.59;5026874;28;19917;-37
2022/06/06 04:35:30;;;;;;;;;;;;;;;22.17;100.00;98729.47;5023807;28;20015;-37
2022/06/06 04:38:09;;;;;;;;;;;;;;;22.86;100.00;98727.06;5027384;28;19925;-37
2022/06/06 04:40:39;;;;;;;;;;;;;;;22.48;100.00;98735.59;5007859;28;19921;-37
2022/06/06 04:43:23;;;;;;;;;;;;;;;22.24;100.00;98728.88;5024462;28;20023;-37
2022/06/06 04:45:51;;;;;;;;;;;;;;;22.82;100.00;98728.28;5038581;28;19921;-37
2022/06/06 04:48:16;;;;;;;;;;;;;;;21.95;100.00;98731.28;5017578;28;19920;-37
2022/06/06 04:50:42;;;;;;;;;;;;;;;22.27;100.00;98740.91;5018866;28;19928;-38
2022/06/06 04:53:08;;;;;;;;;;;;;;;22.36;100.00;98734.88;5016288;28;19921;-37
2022/06/06 04:55:34;;;;;;;;;;;;;;;22.76;100.00;98731.44;5016403;28;19925;-37
2022/06/06 04:58:01;;;;;;;;;;;;;;;22.44;100.00;98737.69;5021471;28;19924;-37
2022/06/06 05:00:26;;;;;;;;;;;;;;;22.58;100.00;98738.25;5034405;28;19921;-38
2022/06/06 05:02:51;;;;;;;;;;;;;;;21.73;100.00;98747.94;5039308;28;20302;-37
2022/06/06 05:05:17;;;;;;;;;;;;;;;22.02;100.00;98742.91;5038023;28;19920;-37
2022/06/06 05:07:56;;;;;;;;;;;;;;;22.47;100.00;98744.47;5015556;28;19921;-37
2022/06/06 05:10:24;;;;;;;;;;;;;;;22.72;100.00;98743.19;5017620;28;20052;-37
2022/06/06 05:13:02;;;;;;;;;;;;;;;22.86;100.00;98753.31;5035538;28;20778;-38
2022/06/06 05:15:39;;;;;;;;;;;;;;;22.85;100.00;98745.56;5029084;28;20011;-37
2022/06/06 05:18:19;;;;;;;;;;;;;;;22.96;100.00;98737.56;5030417;28;19931;-37
2022/06/06 05:20:50;;;;;;;;;;;;;;;23.25;100.00;98748.19;5028516;28;19960;-37
2022/06/06 05:23:18;;;;;;;;;;;;;;;22.37;100.00;98752.25;5028408;28;19920;-37
2022/06/06 05:25:56;;;;;;;;;;;;;;;22.19;100.00;98756.41;5029865;28;20019;-37
2022/06/06 05:28:21;;;;;;;;;;;;;;;22.47;100.00;98757.56;5025790;28;19917;-37
2022/06/06 05:30:53;;;;;;;;;;;;;;;22.39;100.00;98766.09;5027213;28;19921;-38
2022/06/06 05:33:27;;;;;;;;;;;;;;;22.93;100.00;98754.44;5012401;28;20109;-37
2022/06/06 05:36:01;;;;;;;;;;;;;;;22.78;100.00;98758.38;5018547;28;20845;-38
2022/06/06 05:38:30;;;;;;;;;;;;;;;22.49;100.00;98761.72;5028138;28;20347;-37
2022/06/06 05:41:07;;;;;;;;;;;;;;;21.62;100.00;98761.94;5027610;28;20297;-37
2022/06/06 05:43:40;;;;;;;;;;;;;;;23.11;100.00;98764.34;5022889;28;20872;-37
2022/06/06 05:46:06;;;;;;;;;;;;;;;22.64;100.00;98764.00;5027976;28;20382;-37
2022/06/06 05:48:37;;;;;;;;;;;;;;;22.85;100.00;98766.56;5030425;28;19949;-37
2022/06/06 05:51:02;;;;;;;;;;;;;;;22.38;100.00;98764.44;5027124;28;19927;-37
2022/06/06 05:53:46;;;;;;;;;;;;;;;22.94;100.00;98764.00;5027160;28;19925;-38
2022/06/06 05:56:11;;;;;;;;;;;;;;;24.14;100.00;98757.75;5027518;28;20008;-38
2022/06/06 05:58:40;;;;;;;;;;;;;;;23.33;100.00;98750.97;5024354;28;20086;-37
2022/06/06 06:01:14;;;;;;;;;;;;;;;23.01;100.00;98755.59;5006890;28;19973;-38
2022/06/06 06:03:46;;;;;;;;;;;;;;;22.98;100.00;98741.72;5021642;28;19944;-38
2022/06/06 06:06:29;;;;;;;;;;;;;;;23.77;100.00;98748.78;5024802;28;19993;-37
2022/06/06 06:09:13;;;;;;;;;;;;;;;23.31;100.00;98752.91;5026235;28;19917;-37
2022/06/06 06:11:41;;;;;;;;;;;;;;;23.71;100.00;98748.50;5023201;28;19928;-38
2022/06/06 06:14:11;;;;;;;;;;;;;;;24.67;100.00;98746.66;5026103;28;19992;-37
2022/06/06 06:16:41;;;;;;;;;;;;;;;24.59;100.00;98749.22;5007616;28;20365;-38
2022/06/06 06:19:08;;;;;;;;;;;;;;;23.32;100.00;98745.84;5005935;28;20664;-38
2022/06/06 06:21:34;;;;;;;;;;;;;;;23.55;100.00;98751.66;5023350;28;19917;-37
2022/06/06 06:24:03;;;;;;;;;;;;;;;22.71;100.00;98762.50;5006644;28;19992;-38
2022/06/06 06:26:29;;;;;;;;;;;;;;;23.86;100.00;98762.09;5026319;28;19984;-38
2022/06/06 06:28:54;;;;;;;;;;;;;;;23.90;100.00;98769.56;5023308;28;20523;-38
2022/06/06 06:31:32;;;;;;;;;;;;;;;24.15;100.00;98778.66;5010362;28;20757;-38
2022/06/06 06:34:16;;;;;;;;;;;;;;;24.04;100.00;98775.34;5007245;28;20489;-37
2022/06/06 06:37:00;;;;;;;;;;;;;;;24.09;100.00;98781.84;5008716;28;19982;-38
2022/06/06 06:39:25;;;;;;;;;;;;;;;23.37;100.00;98778.63;5025936;28;19933;-38
2022/06/06 06:42:09;;;;;;;;;;;;;;;23.44;100.00;98778.06;5020625;28;20358;-38
2022/06/06 06:44:34;;;;;;;;;;;;;;;24.33;100.00;98770.03;5026993;28;19921;-38
2022/06/06 06:47:29;;;;;;;;;;;;;;;24.13;100.00;98775.34;5028452;28;19949;-38
2022/06/06 06:49:56;;;;;;;;;;;;;;;24.55;100.00;98785.53;5016157;28;19925;-38
2022/06/06 06:52:30;;;;;;;;;;;;;;;23.68;100.00;98790.84;5024418;28;19913;-53
2022/06/06 06:55:18;;;;;;;;;;;;;;;23.51;100.00;98792.34;5026129;28;19921;-52
2022/06/06 06:57:56;;;;;;;;;;;;;;;24.20;100.00;98797.50;5010407;28;19928;-52
2022/06/06 07:00:22;;;;;;;;;;;;;;;22.70;100.00;98815.97;5026701;28;19927;-53
2022/06/06 07:09:19;;;;;;;;;;;;;;;25.14;93.45;98790.56;4961831;28;19921;-54
2022/06/06 07:11:54;;;;;;;;;;;;;;;24.69;92.95;98784.22;5004445;28;20861;-55
2022/06/06 07:14:39;;;;;;;;;;;;;;;24.41;93.97;98784.16;5008865;28;19917;-53
2022/06/06 07:17:04;;;;;;;;;;;;;;;24.61;94.27;98779.69;5031344;28;19925;-55
2022/06/06 07:19:35;;;;;;;;;;;;;;;24.95;90.27;98786.19;5010520;28;19917;-55
2022/06/06 07:22:01;;;;;;;;;;;;;;;26.27;86.83;98774.16;5013883;28;19975;-55
2022/06/06 07:24:27;;;;;;;;;;;;;;;25.84;83.23;98783.72;5031180;28;20660;-54
2022/06/06 07:26:52;;;;;;;;;;;;;;;25.83;86.74;98783.84;5023989;28;19921;-55
2022/06/06 07:29:18;;;;;;;;;;;;;;;24.90;86.97;98783.16;5028094;28;20046;-53
2022/06/06 07:32:03;;;;;;;;;;;;;;;25.66;83.54;98774.97;5024148;28;19932;-54
2022/06/06 07:34:31;;;;;;;;;;;;;;;26.00;79.40;98767.22;5028240;28;19917;-52
2022/06/06 07:36:59;;;;;;;;;;;;;;;26.45;82.45;98778.56;5026789;28;19932;-53
2022/06/06 07:39:27;;;;;;;;;;;;;;;26.73;77.88;98768.69;5032815;28;19921;-51
2022/06/06 07:42:31;;;;;;;;;;;;;;;24.75;82.67;98774.94;5008965;28;19924;-52
2022/06/06 07:45:01;;;;;;;;;;;;;;;25.66;78.96;98773.16;4977699;28;20040;-52
2022/06/06 07:47:32;;;;;;;;;;;;;;;24.99;81.80;98777.84;4954309;28;19921;-53
2022/06/06 07:50:07;;;;;;;;;;;;;;;25.67;81.46;98784.53;5004467;28;19921;-50
2022/06/06 07:52:32;;;;;;;;;;;;;;;25.90;82.08;98776.19;5008567;28;19917;-52
2022/06/06 07:54:57;;;;;;;;;;;;;;;24.84;82.44;98780.16;5027893;28;20531;-53
2022/06/06 07:57:22;;;;;;;;;;;;;;;26.13;82.88;98782.63;5033157;28;21006;-52
2022/06/06 07:59:51;;;;;;;;;;;;;;;26.18;83.08;98780.34;5034703;28;19923;-52
2022/06/06 08:02:27;;;;;;;;;;;;;;;26.46;82.54;98782.88;5012530;28;20006;-52
2022/06/06 08:05:11;;;;;;;;;;;;;;;26.63;81.47;98781.97;5007517;28;19917;-52
2022/06/06 08:07:44;;;;;;;;;;;;;;;27.15;76.76;98778.41;5031074;28;19992;-38
2022/06/06 08:10:18;;;;;;;;;;;;;;;27.19;76.73;98785.03;5024717;28;19921;-38
2022/06/06 08:12:55;;;;;;;;;;;;;;;26.77;79.64;98790.31;5032265;28;19917;-38
2022/06/06 08:15:20;;;;;;;;;;;;;;;26.21;77.58;98790.63;5012781;28;19924;-38
2022/06/06 08:18:04;;;;;;;;;;;;;;;25.65;80.80;98794.41;5030783;28;20595;-38
2022/06/06 08:20:37;;;;;;;;;;;;;;;24.99;81.84;98793.66;5024219;28;20027;-38
2022/06/06 08:23:02;;;;;;;;;;;;;;;24.67;84.25;98798.50;5008029;28;20113;-38
2022/06/06 08:25:27;;;;;;;;;;;;;;;24.81;80.24;98800.66;5004790;28;19959;-38
2022/06/06 08:27:53;;;;;;;;;;;;;;;24.21;83.55;98793.88;4988785;28;19935;-38
2022/06/06 08:30:19;;;;;;;;;;;;;;;25.39;81.92;98789.03;5012157;28;19913;-38
2022/06/06 08:32:45;;;;;;;;;;;;;;;25.52;81.30;98786.03;5031661;28;19999;-38
2022/06/06 08:35:10;;;;;;;;;;;;;;;25.50;75.67;98791.47;5030458;28;19917;-38
2022/06/06 08:37:42;;;;;;;;;;;;;;;27.12;69.65;98765.53;5034363;28;20051;-38
2022/06/06 08:40:26;;;;;;;;;;;;;;;26.32;62.56;98778.97;5006802;28;19952;-38
2022/06/06 08:43:01;;;;;;;;;;;;;;;26.58;64.19;98780.81;5025157;28;19932;-38
2022/06/06 08:45:29;;;;;;;;;;;;;;;26.40;65.56;98775.56;5020989;28;19967;-38
2022/06/06 08:47:57;;;;;;;;;;;;;;;26.05;66.63;98772.84;5025986;28;19966;-38
2022/06/06 08:53:28;;;;;;;;;;;;;;;27.12;69.42;98774.28;5027028;28;20382;-38
2022/06/06 08:56:11;;;;;;;;;;;;;;;27.74;65.36;98768.63;5031172;28;19927;-38
2022/06/06 08:58:39;;;;;;;;;;;;;;;27.77;67.66;98756.88;5031221;28;19921;-38
2022/06/06 09:01:13;;;;;;;;;;;;;;;27.63;64.50;98763.66;5029495;28;20662;-38
2022/06/06 09:03:58;;;;;;;;;;;;;;;27.80;66.14;98755.72;5017340;28;20007;-38
2022/06/06 09:06:23;;;;;;;;;;;;;;;27.24;63.38;98756.31;5029372;28;19967;-38
2022/06/06 09:08:58;;;;;;;;;;;;;;;26.23;72.23;98766.72;5027756;28;19917;-38
2022/06/06 09:11:42;;;;;;;;;;;;;;;29.72;55.81;98750.28;5009965;28;19920;-38
2022/06/06 09:14:07;;;;;;;;;;;;;;;27.99;60.11;98758.06;5029690;28;19921;-38
2022/06/06 09:16:58;;;;;;;;;;;;;;;27.76;60.53;98755.25;5025600;28;19921;-38
2022/06/06 09:19:42;;;;;;;;;;;;;;;27.96;63.14;98755.75;5009005;28;20495;-38
2022/06/06 09:22:20;;;;;;;;;;;;;;;27.59;60.71;98754.38;5028955;28;20377;-38
2022/06/06 09:25:04;;;;;;;;;;;;;;;27.29;56.26;98753.19;5023773;28;19916;-38
2022/06/06 09:27:47;;;;;;;;;;;;;;;27.98;59.77;98748.47;5024544;28;20341;-38
2022/06/06 09:30:19;;;;;;;;;;;;;;;28.07;57.11;98751.94;5024166;28;19921;-38
2022/06/06 09:33:03;;;;;;;;;;;;;;;27.38;58.50;98757.50;5033263;28;19921;-39
2022/06/06 09:35:34;;;;;;;;;;;;;;;28.15;58.42;98754.59;5026035;28;19917;-39
2022/06/06 09:38:31;;;;;;;;;;;;;;;27.66;58.50;98751.91;5030822;28;20002;-39
2022/06/06 09:41:14;;;;;;;;;;;;;;;26.64;58.63;98749.31;4992150;28;19971;-39
2022/06/06 09:43:54;;;;;;;;;;;;;;;27.54;61.53;98756.72;5011591;28;19917;-39
2022/06/06 09:46:36;;;;;;;;;;;;;;;28.23;56.58;98751.91;5006977;28;20340;-39
2022/06/06 09:49:10;;;;;;;;;;;;;;;26.05;62.34;98759.66;5014267;28;20022;-39
2022/06/06 09:51:46;;;;;;;;;;;;;;;25.88;58.24;98749.94;5004733;28;20032;-39
2022/06/06 10:00:23;;;;;;;;;;;;;;;27.07;59.03;98739.56;5043402;28;20518;-39
2022/06/06 10:03:04;;;;;;;;;;;;;;;27.06;56.68;98748.47;5055517;28;19927;-39
2022/06/06 10:05:36;;;;;;;;;;;;;;;26.68;60.63;98745.34;5041480;28;19916;-39
2022/06/06 10:08:20;;;;;;;;;;;;;;;27.97;55.85;98735.41;5057596;28;19917;-39
2022/06/06 10:10:45;;;;;;;;;;;;;;;28.12;50.04;98734.56;5041138;28;19979;-39
2022/06/06 10:13:11;;;;;;;;;;;;;;;28.04;52.14;98731.94;5039683;28;20514;-39
2022/06/06 10:15:40;;;;;;;;;;;;;;;28.70;52.70;98737.09;5041279;28;19931;-39
2022/06/06 10:18:20;;;;;;;;;;;;;;;28.21;58.13;98745.13;5041607;28;19924;-39
2022/06/06 10:20:57;;;;;;;;;;;;;;;28.37;54.99;98737.16;5040169;28;19916;-39
2022/06/06 10:23:30;;;;;;;;;;;;;;;26.37;52.27;98741.56;5041785;28;19920;-39
2022/06/06 10:26:14;;;;;;;;;;;;;;;26.10;53.71;98731.97;5040191;28;19947;-39
2022/06/06 10:28:40;;;;;;;;;;;;;;;25.19;54.65;98735.63;5041163;28;19921;-39
2022/06/06 10:31:11;;;;;;;;;;;;;;;26.53;57.12;98730.25;5038873;28;20370;-39
2022/06/06 10:33:42;;;;;;;;;;;;;;;26.44;53.25;98724.91;5040768;28;19988;-39
2022/06/06 10:36:26;;;;;;;;;;;;;;;25.84;59.24;98724.81;5041325;28;19991;-39
2022/06/06 10:39:03;;;;;;;;;;;;;;;25.84;61.49;98738.00;5037292;28;20162;-38
2022/06/06 10:41:47;;;;;;;;;;;;;;;26.95;58.30;98724.16;5041286;28;19917;-39
2022/06/06 10:44:38;;;;;;;;;;;;;;;27.63;53.20;98717.88;5039850;28;19917;-39
2022/06/06 10:47:16;;;;;;;;;;;;;;;27.60;52.35;98718.16;5033500;28;19924;-39
2022/06/06 10:49:41;;;;;;;;;;;;;;;27.36;52.31;98721.66;5039396;28;19924;-39
2022/06/06 10:52:17;;;;;;;;;;;;;;;28.39;54.96;98721.91;5038338;28;19921;-39
2022/06/06 10:54:42;;;;;;;;;;;;;;;27.71;46.43;98725.78;5041216;28;19916;-39
2022/06/06 10:57:28;;;;;;;;;;;;;;;27.08;50.49;98720.06;5040420;28;19920;-39
2022/06/06 11:00:12;;;;;;;;;;;;;;;28.59;49.75;98716.25;5055227;28;19925;-39
2022/06/06 11:02:44;;;;;;;;;;;;;;;28.95;49.88;98719.25;5039838;28;19967;-39
2022/06/06 11:05:13;;;;;;;;;;;;;;;28.42;53.41;98723.38;5039794;28;19932;-39
2022/06/06 11:07:57;;;;;;;;;;;;;;;28.48;49.60;98701.56;5039407;28;20337;-39
2022/06/06 11:10:31;;;;;;;;;;;;;;;28.51;46.18;98727.69;5032866;28;19917;-39
2022/06/06 11:13:15;;;;;;;;;;;;;;;27.60;51.27;98724.31;5027538;28;19967;-39
2022/06/06 11:15:59;;;;;;;;;;;;;;;25.18;65.57;98760.25;5024154;28;19968;-39
2022/06/06 11:18:36;;;;;;;;;;;;;;;24.42;81.14;98763.91;5028124;28;19975;-39
2022/06/06 11:21:23;;;;;;;;;;;;;;;23.49;83.66;98795.13;5026191;28;19917;-38
2022/06/06 11:24:08;;;;;;;;;;;;;;;24.38;85.77;98794.97;5027716;28;19923;-38
2022/06/06 11:26:34;;;;;;;;;;;;;;;24.28;89.97;98814.38;5038326;28;19917;-39
2022/06/06 11:28:59;;;;;;;;;;;;;;;25.23;91.31;98810.78;5027016;28;20305;-38
2022/06/06 11:31:33;;;;;;;;;;;;;;;24.07;92.79;98807.47;5029564;28;20706;-39
2022/06/06 11:34:02;;;;;;;;;;;;;;;24.70;91.21;98795.56;5027086;28;19944;-39
2022/06/06 11:36:39;;;;;;;;;;;;;;;25.70;84.29;98792.13;5025274;28;19928;-38
2022/06/06 11:39:13;;;;;;;;;;;;;;;25.83;86.95;98792.59;5026529;28;19955;-38
2022/06/06 11:41:38;;;;;;;;;;;;;;;25.37;88.74;98797.09;5025464;28;20360;-38
2022/06/06 11:44:10;;;;;;;;;;;;;;;25.58;88.70;98788.06;5027929;28;20004;-38
2022/06/06 11:46:44;;;;;;;;;;;;;;;26.07;89.24;98785.91;5023778;28;19928;-38
2022/06/06 11:49:21;;;;;;;;;;;;;;;25.20;85.62;98784.69;5027853;28;19995;-39
2022/06/06 11:51:53;;;;;;;;;;;;;;;26.78;85.12;98769.03;5026956;28;19925;-39
2022/06/06 11:54:36;;;;;;;;;;;;;;;27.41;79.01;98761.63;5041149;28;19974;-38
2022/06/06 11:57:20;;;;;;;;;;;;;;;27.75;79.49;98756.22;5025826;28;19917;-39
2022/06/06 11:59:48;;;;;;;;;;;;;;;28.37;73.04;98753.03;5043266;28;19928;-39
2022/06/06 12:02:32;;;;;;;;;;;;;;;28.40;72.27;98760.66;5027482;28;19928;-39
2022/06/06 12:05:10;;;;;;;;;;;;;;;29.48;69.16;98746.78;5044134;28;19921;-39
2022/06/06 12:07:41;;;;;;;;;;;;;;;30.48;68.91;98758.25;5043251;28;20270;-39
2022/06/06 12:10:06;;;;;;;;;;;;;;;29.76;66.72;98756.88;5027450;28;19912;-39
2022/06/06 12:12:51;;;;;;;;;;;;;;;30.06;67.99;98762.28;5045954;28;19912;-38
2022/06/06 12:15:23;;;;;;;;;;;;;;;30.71;61.54;98761.63;5028123;28;19917;-39
2022/06/06 12:17:55;;;;;;;;;;;;;;;30.01;64.27;98760.16;5045468;28;19982;-39
2022/06/06 12:20:39;;;;;;;;;;;;;;;30.18;62.24;98758.19;5025102;28;20093;-39
2022/06/06 12:23:17;;;;;;;;;;;;;;;29.37;66.38;98771.88;5046053;28;19950;-39
2022/06/06 12:25:46;;;;;;;;;;;;;;;28.51;67.08;98770.09;5046587;28;19983;-39
2022/06/06 12:28:30;;;;;;;;;;;;;;;29.12;63.61;98763.25;5040836;28;20449;-39
2022/06/06 12:31:04;;;;;;;;;;;;;;;28.69;61.14;98772.53;5043370;28;20005;-39
2022/06/06 12:33:29;;;;;;;;;;;;;;;27.72;68.06;98769.78;5044129;28;19916;-39
2022/06/06 12:36:16;;;;;;;;;;;;;;;27.41;66.25;98751.06;5043416;28;19924;-39
2022/06/06 12:38:41;;;;;;;;;;;;;;;26.68;63.55;98761.19;5023574;28;19925;-38
2022/06/06 12:41:25;;;;;;;;;;;;;;;27.07;59.36;98759.88;5045645;28;20416;-39
2022/06/06 12:44:01;;;;;;;;;;;;;;;27.82;58.94;98749.28;5046778;28;19979;-39
2022/06/06 12:46:26;;;;;;;;;;;;;;;27.39;63.57;98747.75;5044366;28;19959;-39
2022/06/06 12:49:10;;;;;;;;;;;;;;;27.99;57.53;98744.03;5042057;28;19984;-39
2022/06/06 12:51:35;;;;;;;;;;;;;;;28.38;59.72;98740.66;5042127;28;19924;-38
2022/06/06 12:54:19;;;;;;;;;;;;;;;28.24;61.14;98742.16;5045879;28;19916;-39
2022/06/06 12:56:45;;;;;;;;;;;;;;;29.08;58.18;98740.75;5043103;28;19920;-39
2022/06/06 12:59:17;;;;;;;;;;;;;;;28.22;59.68;98750.28;5044431;28;19951;-39
2022/06/06 13:01:45;;;;;;;;;;;;;;;28.19;60.67;98747.97;5043870;28;19958;-39
2022/06/06 13:04:16;;;;;;;;;;;;;;;28.59;55.01;98730.34;5043750;28;19962;-39
2022/06/06 13:07:00;;;;;;;;;;;;;;;28.28;57.20;98731.06;5047310;28;19920;-39
2022/06/06 13:09:31;;;;;;;;;;;;;;;28.49;58.84;98735.84;5045279;28;19921;-39
2022/06/06 13:11:58;;;;;;;;;;;;;;;28.03;57.78;98724.13;5042835;28;19921;-39
2022/06/06 13:14:42;;;;;;;;;;;;;;;29.77;57.47;98719.56;5044079;28;19920;-39
2022/06/06 13:17:13;;;;;;;;;;;;;;;30.80;54.07;98702.03;5045559;28;19957;-39
2022/06/06 13:19:57;;;;;;;;;;;;;;;31.30;49.15;98704.03;5044282;28;19951;-39
2022/06/06 13:22:28;;;;;;;;;;;;;;;31.20;50.49;98705.16;5038357;28;19932;-39
2022/06/06 13:25:13;;;;;;;;;;;;;;;31.24;49.95;98701.09;5041497;28;19971;-39
2022/06/06 13:27:51;;;;;;;;;;;;;;;31.80;48.14;98696.94;5045441;28;19924;-39
2022/06/06 13:30:23;;;;;;;;;;;;;;;30.81;48.97;98703.69;5044475;28;20365;-39